sensor_id;sensor_type;location;lat;lon;timestamp;pressure;altitude;pressure_sealevel;temperature;humidity
77452;BME280;66537;52.370;4.832;2023-09-08T00:02:02;101735.34;;;21.25;96.90
77452;BME280;66537;52.370;4.832;2023-09-08T00:04:27;101732.88;;;21.22;97.54
77452;BME280;66537;52.370;4.832;2023-09-08T00:06:53;101732.69;;;21.25;98.40
77452;BME280;66537;52.370;4.832;2023-09-08T00:09:18;101731.34;;;21.18;100.00
77452;BME280;66537;52.370;4.832;2023-09-08T00:11:44;101730.44;;;21.19;99.00
77452;BME280;66537;52.370;4.832;2023-09-08T00:14:09;101735.25;;;21.26;98.88
77452;BME280;66537;52.370;4.832;2023-09-08T00:16:34;101728.75;;;21.02;100.00
77452;BME280;66537;52.370;4.832;2023-09-08T00:19:00;101734.13;;;21.01;100.00
77452;BME280;66537;52.370;4.832;2023-09-08T00:21:25;101734.28;;;20.98;100.00
77452;BME280;66537;52.370;4.832;2023-09-08T00:23:52;101740.03;;;20.89;100.00
77452;BME280;66537;52.370;4.832;2023-09-08T00:26:17;101730.66;;;20.85;100.00
77452;BME280;66537;52.370;4.832;2023-09-08T00:28:43;101734.97;;;20.86;100.00
77452;BME280;66537;52.370;4.832;2023-09-08T00:31:08;101727.75;;;20.89;100.00
77452;BME280;66537;52.370;4.832;2023-09-08T00:33:33;101723.50;;;20.87;100.00
77452;BME280;66537;52.370;4.832;2023-09-08T00:35:59;101733.09;;;20.88;100.00
77452;BME280;66537;52.370;4.832;2023-09-08T00:38:24;101734.31;;;20.82;100.00
77452;BME280;66537;52.370;4.832;2023-09-08T00:40:50;101736.41;;;20.76;100.00
77452;BME280;66537;52.370;4.832;2023-09-08T00:43:16;101738.97;;;20.77;100.00
77452;BME280;66537;52.370;4.832;2023-09-08T00:45:42;101738.47;;;20.71;100.00
77452;BME280;66537;52.370;4.832;2023-09-08T00:48:09;101735.84;;;20.71;100.00
77452;BME280;66537;52.370;4.832;2023-09-08T00:50:36;101734.31;;;20.66;100.00
77452;BME280;66537;52.370;4.832;2023-09-08T00:53:03;101744.16;;;20.63;100.00
77452;BME280;66537;52.370;4.832;2023-09-08T00:55:28;101740.25;;;20.54;100.00
77452;BME280;66537;52.370;4.832;2023-09-08T00:57:54;101740.25;;;20.54;100.00
77452;BME280;66537;52.370;4.832;2023-09-08T01:00:20;101742.03;;;20.54;100.00
77452;BME280;66537;52.370;4.832;2023-09-08T01:02:45;101737.06;;;20.49;100.00
77452;BME280;66537;52.370;4.832;2023-09-08T01:05:11;101736.97;;;20.51;100.00
77452;BME280;66537;52.370;4.832;2023-09-08T01:07:38;101736.88;;;20.52;100.00
77452;BME280;66537;52.370;4.832;2023-09-08T01:10:04;101735.44;;;20.47;100.00
77452;BME280;66537;52.370;4.832;2023-09-08T01:12:31;101731.28;;;20.43;100.00
77452;BME280;66537;52.370;4.832;2023-09-08T01:14:57;101736.63;;;20.41;100.00
77452;BME280;66537;52.370;4.832;2023-09-08T01:17:22;101731.59;;;20.37;100.00
77452;BME280;66537;52.370;4.832;2023-09-08T01:19:48;101733.47;;;20.35;100.00
77452;BME280;66537;52.370;4.832;2023-09-08T01:25:20;101734.84;;;20.26;100.00
77452;BME280;66537;52.370;4.832;2023-09-08T01:27:49;101741.88;;;20.26;100.00
77452;BME280;66537;52.370;4.832;2023-09-08T01:30:15;101742.09;;;20.21;100.00
77452;BME280;66537;52.370;4.832;2023-09-08T01:32:42;101731.84;;;20.17;100.00
77452;BME280;66537;52.370;4.832;2023-09-08T01:35:07;101738.94;;;20.15;100.00
77452;BME280;66537;52.370;4.832;2023-09-08T01:37:33;101731.84;;;20.17;100.00
77452;BME280;66537;52.370;4.832;2023-09-08T01:39:59;101733.25;;;20.07;100.00
77452;BME280;66537;52.370;4.832;2023-09-08T01:42:24;101731.22;;;20.12;100.00
77452;BME280;66537;52.370;4.832;2023-09-08T01:44:49;101730.97;;;20.16;100.00
77452;BME280;66537;52.370;4.832;2023-09-08T01:47:16;101734.03;;;20.09;100.00
77452;BME280;66537;52.370;4.832;2023-09-08T01:49:41;101729.53;;;20.11;100.00
77452;BME280;66537;52.370;4.832;2023-09-08T01:52:06;101731.72;;;20.03;100.00
77452;BME280;66537;52.370;4.832;2023-09-08T01:54:32;101730.94;;;20.01;100.00
77452;BME280;66537;52.370;4.832;2023-09-08T01:56:57;101725.78;;;19.99;100.00
77452;BME280;66537;52.370;4.832;2023-09-08T01:59:25;101720.22;;;20.05;100.00
77452;BME280;66537;52.370;4.832;2023-09-08T02:01:51;101720.53;;;19.99;100.00
77452;BME280;66537;52.370;4.832;2023-09-08T02:04:16;101729.50;;;19.95;100.00
77452;BME280;66537;52.370;4.832;2023-09-08T02:06:41;101728.31;;;20.01;100.00
77452;BME280;66537;52.370;4.832;2023-09-08T02:09:07;101727.56;;;19.99;100.00
77452;BME280;66537;52.370;4.832;2023-09-08T02:11:34;101722.66;;;20.08;100.00
77452;BME280;66537;52.370;4.832;2023-09-08T02:14:00;101718.69;;;20.01;100.00
77452;BME280;66537;52.370;4.832;2023-09-08T02:16:25;101724.94;;;19.99;100.00
77452;BME280;66537;52.370;4.832;2023-09-08T02:18:50;101723.56;;;19.92;100.00
77452;BME280;66537;52.370;4.832;2023-09-08T02:21:16;101715.09;;;20.02;100.00
77452;BME280;66537;52.370;4.832;2023-09-08T02:23:41;101715.78;;;20.06;100.00
77452;BME280;66537;52.370;4.832;2023-09-08T02:26:06;101719.44;;;20.03;100.00
77452;BME280;66537;52.370;4.832;2023-09-08T02:28:32;101712.16;;;20.08;100.00
77452;BME280;66537;52.370;4.832;2023-09-08T02:30:57;101714.50;;;19.97;100.00
77452;BME280;66537;52.370;4.832;2023-09-08T02:33:22;101713.75;;;19.95;100.00
77452;BME280;66537;52.370;4.832;2023-09-08T02:35:48;101716.38;;;19.95;100.00
77452;BME280;66537;52.370;4.832;2023-09-08T02:38:13;101710.34;;;19.93;100.00
77452;BME280;66537;52.370;4.832;2023-09-08T02:40:38;101711.28;;;19.92;100.00
77452;BME280;66537;52.370;4.832;2023-09-08T02:43:04;101715.16;;;19.85;100.00
77452;BME280;66537;52.370;4.832;2023-09-08T02:45:30;101717.41;;;20.08;100.00
77452;BME280;66537;52.370;4.832;2023-09-08T02:47:55;101714.25;;;20.02;100.00
77452;BME280;66537;52.370;4.832;2023-09-08T02:50:21;101725.34;;;19.91;100.00
77452;BME280;66537;52.370;4.832;2023-09-08T02:52:46;101721.41;;;19.83;100.00
77452;BME280;66537;52.370;4.832;2023-09-08T02:55:12;101721.88;;;19.91;100.00
77452;BME280;66537;52.370;4.832;2023-09-08T02:57:38;101722.88;;;19.88;100.00
77452;BME280;66537;52.370;4.832;2023-09-08T03:00:05;101730.06;;;19.85;100.00
77452;BME280;66537;52.370;4.832;2023-09-08T03:02:32;101722.69;;;19.75;100.00
77452;BME280;66537;52.370;4.832;2023-09-08T03:04:57;101722.75;;;19.74;100.00
77452;BME280;66537;52.370;4.832;2023-09-08T03:07:22;101719.38;;;19.72;100.00
77452;BME280;66537;52.370;4.832;2023-09-08T03:09:48;101715.91;;;19.71;100.00
77452;BME280;66537;52.370;4.832;2023-09-08T03:12:13;101715.22;;;19.68;100.00
77452;BME280;66537;52.370;4.832;2023-09-08T03:14:38;101717.56;;;19.72;100.00
77452;BME280;66537;52.370;4.832;2023-09-08T03:17:04;101709.19;;;19.66;100.00
77452;BME280;66537;52.370;4.832;2023-09-08T03:19:29;101715.28;;;19.66;100.00
77452;BME280;66537;52.370;4.832;2023-09-08T03:21:55;101707.75;;;19.60;100.00
77452;BME280;66537;52.370;4.832;2023-09-08T03:24:20;101709.59;;;19.58;100.00
77452;BME280;66537;52.370;4.832;2023-09-08T03:26:45;101701.78;;;19.57;100.00
77452;BME280;66537;52.370;4.832;2023-09-08T03:29:11;101699.09;;;19.58;100.00
77452;BME280;66537;52.370;4.832;2023-09-08T03:31:36;101697.06;;;19.63;100.00
77452;BME280;66537;52.370;4.832;2023-09-08T03:34:01;101693.16;;;19.55;100.00
77452;BME280;66537;52.370;4.832;2023-09-08T03:36:27;101693.16;;;19.55;100.00
77452;BME280;66537;52.370;4.832;2023-09-08T03:38:52;101694.31;;;19.49;100.00
77452;BME280;66537;52.370;4.832;2023-09-08T03:41:18;101690.78;;;19.50;100.00
77452;BME280;66537;52.370;4.832;2023-09-08T03:43:43;101701.94;;;19.54;100.00
77452;BME280;66537;52.370;4.832;2023-09-08T03:46:09;101695.25;;;19.48;100.00
77452;BME280;66537;52.370;4.832;2023-09-08T03:48:34;101693.47;;;19.49;100.00
77452;BME280;66537;52.370;4.832;2023-09-08T03:50:59;101692.63;;;19.48;100.00
77452;BME280;66537;52.370;4.832;2023-09-08T03:53:25;101692.06;;;19.42;100.00
77452;BME280;66537;52.370;4.832;2023-09-08T03:55:50;101689.41;;;19.43;100.00
77452;BME280;66537;52.370;4.832;2023-09-08T03:58:16;101688.38;;;19.46;100.00
77452;BME280;66537;52.370;4.832;2023-09-08T04:00:41;101687.59;;;19.44;100.00
77452;BME280;66537;52.370;4.832;2023-09-08T04:03:08;101687.38;;;19.48;100.00
77452;BME280;66537;52.370;4.832;2023-09-08T04:05:33;101694.38;;;19.48;100.00
77452;BME280;66537;52.370;4.832;2023-09-08T04:07:59;101697.97;;;19.47;100.00
77452;BME280;66537;52.370;4.832;2023-09-08T04:10:24;101690.91;;;19.47;100.00
77452;BME280;66537;52.370;4.832;2023-09-08T04:12:50;101692.63;;;19.31;100.00
77452;BME280;66537;52.370;4.832;2023-09-08T04:15:15;101690.00;;;19.31;100.00
77452;BME280;66537;52.370;4.832;2023-09-08T04:17:41;101689.31;;;19.28;100.00
77452;BME280;66537;52.370;4.832;2023-09-08T04:20:07;101692.75;;;19.28;100.00
77452;BME280;66537;52.370;4.832;2023-09-08T04:22:33;101689.13;;;19.31;100.00
77452;BME280;66537;52.370;4.832;2023-09-08T04:24:59;101686.69;;;19.28;100.00
77452;BME280;66537;52.370;4.832;2023-09-08T04:27:24;101685.19;;;19.22;100.00
77452;BME280;66537;52.370;4.832;2023-09-08T04:29:50;101680.44;;;19.13;100.00
77452;BME280;66537;52.370;4.832;2023-09-08T04:32:15;101682.19;;;19.13;100.00
77452;BME280;66537;52.370;4.832;2023-09-08T04:34:41;101682.66;;;19.21;100.00
77452;BME280;66537;52.370;4.832;2023-09-08T04:37:08;101692.53;;;19.16;100.00
77452;BME280;66537;52.370;4.832;2023-09-08T04:39:34;101685.38;;;19.19;100.00
77452;BME280;66537;52.370;4.832;2023-09-08T04:41:59;101687.13;;;19.19;100.00
77452;BME280;66537;52.370;4.832;2023-09-08T04:44:25;101690.78;;;19.16;100.00
77452;BME280;66537;52.370;4.832;2023-09-08T04:46:53;101695.31;;;19.13;100.00
77452;BME280;66537;52.370;4.832;2023-09-08T04:49:19;101697.88;;;19.14;100.00
77452;BME280;66537;52.370;4.832;2023-09-08T04:51:44;101693.31;;;19.18;100.00
77452;BME280;66537;52.370;4.832;2023-09-08T04:54:10;101692.84;;;19.10;100.00
77452;BME280;66537;52.370;4.832;2023-09-08T04:56:35;101690.38;;;19.07;100.00
77452;BME280;66537;52.370;4.832;2023-09-08T04:59:01;101684.38;;;19.05;100.00
77452;BME280;66537;52.370;4.832;2023-09-08T05:01:27;101691.22;;;19.07;100.00
77452;BME280;66537;52.370;4.832;2023-09-08T05:03:52;101698.41;;;19.04;100.00
77452;BME280;66537;52.370;4.832;2023-09-08T05:06:18;101690.53;;;19.04;100.00
77452;BME280;66537;52.370;4.832;2023-09-08T05:08:43;101695.16;;;18.99;100.00
77452;BME280;66537;52.370;4.832;2023-09-08T05:11:09;101688.75;;;19.04;100.00
77452;BME280;66537;52.370;4.832;2023-09-08T05:13:35;101689.63;;;19.05;100.00
77452;BME280;66537;52.370;4.832;2023-09-08T05:16:01;101691.38;;;19.04;100.00
77452;BME280;66537;52.370;4.832;2023-09-08T05:18:36;101694.16;;;19.01;100.00
77452;BME280;66537;52.370;4.832;2023-09-08T05:21:02;101690.69;;;19.01;100.00
77452;BME280;66537;52.370;4.832;2023-09-08T05:23:27;101691.38;;;19.04;100.00
77452;BME280;66537;52.370;4.832;2023-09-08T05:25:53;101689.91;;;19.16;100.00
77452;BME280;66537;52.370;4.832;2023-09-08T05:28:19;101692.06;;;19.08;100.00
77452;BME280;66537;52.370;4.832;2023-09-08T05:30:44;101695.25;;;19.14;100.00
77452;BME280;66537;52.370;4.832;2023-09-08T05:33:09;101696.03;;;19.16;100.00
77452;BME280;66537;52.370;4.832;2023-09-08T05:35:35;101701.63;;;19.09;100.00
77452;BME280;66537;52.370;4.832;2023-09-08T05:38:01;101694.53;;;19.11;100.00
77452;BME280;66537;52.370;4.832;2023-09-08T05:40:27;101700.94;;;19.22;100.00
77452;BME280;66537;52.370;4.832;2023-09-08T05:42:53;101702.44;;;19.28;100.00
77452;BME280;66537;52.370;4.832;2023-09-08T05:45:18;101702.72;;;19.22;100.00
77452;BME280;66537;52.370;4.832;2023-09-08T05:47:44;101694.69;;;19.25;100.00
77452;BME280;66537;52.370;4.832;2023-09-08T05:50:09;101700.44;;;19.33;100.00
77452;BME280;66537;52.370;4.832;2023-09-08T05:52:36;101714.31;;;19.18;100.00
77452;BME280;66537;52.370;4.832;2023-09-08T05:55:01;101711.81;;;19.15;100.00
77452;BME280;66537;52.370;4.832;2023-09-08T05:57:26;101712.69;;;19.32;100.00
77452;BME280;66537;52.370;4.832;2023-09-08T05:59:52;101719.84;;;19.29;100.00
77452;BME280;66537;52.370;4.832;2023-09-08T06:02:17;101717.41;;;19.43;100.00
77452;BME280;66537;52.370;4.832;2023-09-08T06:04:42;101720.81;;;19.45;100.00
77452;BME280;66537;52.370;4.832;2023-09-08T06:07:08;101728.81;;;19.42;100.00
77452;BME280;66537;52.370;4.832;2023-09-08T06:09:33;101730.22;;;19.49;100.00
77452;BME280;66537;52.370;4.832;2023-09-08T06:11:58;101727.34;;;19.53;100.00
77452;BME280;66537;52.370;4.832;2023-09-08T06:14:24;101732.75;;;19.50;100.00
77452;BME280;66537;52.370;4.832;2023-09-08T06:16:49;101737.22;;;19.48;100.00
77452;BME280;66537;52.370;4.832;2023-09-08T06:19:14;101737.84;;;19.53;100.00
77452;BME280;66537;52.370;4.832;2023-09-08T06:21:40;101737.44;;;19.61;100.00
77452;BME280;66537;52.370;4.832;2023-09-08T06:24:06;101736.63;;;19.60;100.00
77452;BME280;66537;52.370;4.832;2023-09-08T06:26:31;101739.25;;;19.60;100.00
77452;BME280;66537;52.370;4.832;2023-09-08T06:28:57;101742.47;;;19.65;100.00
77452;BME280;66537;52.370;4.832;2023-09-08T06:31:22;101739.34;;;19.74;100.00
77452;BME280;66537;52.370;4.832;2023-09-08T06:33:47;101744.53;;;19.76;100.00
77452;BME280;66537;52.370;4.832;2023-09-08T06:36:17;101739.34;;;19.74;100.00
77452;BME280;66537;52.370;4.832;2023-09-08T06:38:42;101743.06;;;19.70;100.00
77452;BME280;66537;52.370;4.832;2023-09-08T06:41:09;101744.28;;;19.80;100.00
77452;BME280;66537;52.370;4.832;2023-09-08T06:43:35;101737.78;;;19.88;100.00
77452;BME280;66537;52.370;4.832;2023-09-08T06:46:01;101744.63;;;19.90;100.00
77452;BME280;66537;52.370;4.832;2023-09-08T06:48:26;101736.97;;;20.03;100.00
77452;BME280;66537;52.370;4.832;2023-09-08T06:50:55;101737.31;;;20.12;100.00
77452;BME280;66537;52.370;4.832;2023-09-08T06:53:22;101740.03;;;20.11;100.00
77452;BME280;66537;52.370;4.832;2023-09-08T06:55:47;101739.09;;;20.12;100.00
77452;BME280;66537;52.370;4.832;2023-09-08T06:58:12;101741.34;;;20.19;100.00
77452;BME280;66537;52.370;4.832;2023-09-08T07:00:40;101737.63;;;20.23;100.00
77452;BME280;66537;52.370;4.832;2023-09-08T07:03:05;101739.50;;;20.52;100.00
77452;BME280;66537;52.370;4.832;2023-09-08T07:05:30;101735.31;;;20.64;100.00
77452;BME280;66537;52.370;4.832;2023-09-08T07:07:56;101736.50;;;20.74;100.00
77452;BME280;66537;52.370;4.832;2023-09-08T07:10:21;101741.09;;;20.86;100.00
77452;BME280;66537;52.370;4.832;2023-09-08T07:12:47;101735.84;;;21.45;100.00
77452;BME280;66537;52.370;4.832;2023-09-08T07:15:14;101743.69;;;21.75;99.46
77452;BME280;66537;52.370;4.832;2023-09-08T07:17:40;101740.53;;;21.84;97.54
77452;BME280;66537;52.370;4.832;2023-09-08T07:20:06;101746.06;;;21.94;96.67
77452;BME280;66537;52.370;4.832;2023-09-08T07:22:31;101745.59;;;22.29;93.18
77452;BME280;66537;52.370;4.832;2023-09-08T07:24:57;101737.59;;;23.63;85.47
77452;BME280;66537;52.370;4.832;2023-09-08T07:27:22;101736.06;;;25.29;76.55
77452;BME280;66537;52.370;4.832;2023-09-08T07:29:47;101740.91;;;26.67;71.10
77452;BME280;66537;52.370;4.832;2023-09-08T07:32:15;101740.59;;;26.93;68.12
77452;BME280;66537;52.370;4.832;2023-09-08T07:34:40;101743.88;;;27.17;64.82
77452;BME280;66537;52.370;4.832;2023-09-08T07:37:05;101745.66;;;27.27;64.37
77452;BME280;66537;52.370;4.832;2023-09-08T07:39:31;101737.56;;;27.49;63.51
77452;BME280;66537;52.370;4.832;2023-09-08T07:41:58;101738.66;;;28.28;62.34
77452;BME280;66537;52.370;4.832;2023-09-08T07:44:23;101739.19;;;28.81;59.67
77452;BME280;66537;52.370;4.832;2023-09-08T07:46:48;101738.22;;;28.72;60.03
77452;BME280;66537;52.370;4.832;2023-09-08T07:49:16;101740.88;;;29.20;58.93
77452;BME280;66537;52.370;4.832;2023-09-08T07:51:44;101742.63;;;29.77;57.09
77452;BME280;66537;52.370;4.832;2023-09-08T07:54:09;101740.34;;;29.82;56.07
77452;BME280;66537;52.370;4.832;2023-09-08T07:56:35;101737.03;;;30.34;55.86
77452;BME280;66537;52.370;4.832;2023-09-08T07:59:00;101739.44;;;30.37;55.74
77452;BME280;66537;52.370;4.832;2023-09-08T08:01:25;101738.06;;;31.21;53.68
77452;BME280;66537;52.370;4.832;2023-09-08T08:03:51;101736.47;;;31.79;51.60
77452;BME280;66537;52.370;4.832;2023-09-08T08:06:16;101735.28;;;31.48;52.21
77452;BME280;66537;52.370;4.832;2023-09-08T08:08:42;101736.25;;;31.65;52.38
77452;BME280;66537;52.370;4.832;2023-09-08T08:11:16;101736.31;;;31.55;52.34
77452;BME280;66537;52.370;4.832;2023-09-08T08:13:43;101745.81;;;31.06;54.10
77452;BME280;66537;52.370;4.832;2023-09-08T08:16:08;101739.63;;;30.88;54.28
77452;BME280;66537;52.370;4.832;2023-09-08T08:18:33;101743.03;;;31.34;53.11
77452;BME280;66537;52.370;4.832;2023-09-08T08:20:59;101744.06;;;32.26;50.83
77452;BME280;66537;52.370;4.832;2023-09-08T08:23:26;101746.00;;;32.08;51.71
77452;BME280;66537;52.370;4.832;2023-09-08T08:25:51;101741.53;;;32.16;51.69
77452;BME280;66537;52.370;4.832;2023-09-08T08:28:17;101739.19;;;32.63;50.84
77452;BME280;66537;52.370;4.832;2023-09-08T08:30:42;101732.00;;;31.88;52.06
77452;BME280;66537;52.370;4.832;2023-09-08T08:33:07;101727.00;;;32.35;51.43
77452;BME280;66537;52.370;4.832;2023-09-08T08:35:33;101738.38;;;32.21;51.08
77452;BME280;66537;52.370;4.832;2023-09-08T08:37:59;101741.28;;;31.93;52.82
77452;BME280;66537;52.370;4.832;2023-09-08T08:40:25;101737.72;;;32.35;51.98
77452;BME280;66537;52.370;4.832;2023-09-08T08:42:55;101745.00;;;32.09;52.23
77452;BME280;66537;52.370;4.832;2023-09-08T08:45:23;101744.44;;;32.39;51.78
77452;BME280;66537;52.370;4.832;2023-09-08T08:47:51;101744.16;;;32.58;51.43
77452;BME280;66537;52.370;4.832;2023-09-08T08:50:18;101742.09;;;33.02;50.34
77452;BME280;66537;52.370;4.832;2023-09-08T08:52:43;101739.22;;;33.03;50.36
77452;BME280;66537;52.370;4.832;2023-09-08T08:55:09;101743.25;;;33.31;49.75
77452;BME280;66537;52.370;4.832;2023-09-08T08:57:39;101750.25;;;32.84;51.15
77452;BME280;66537;52.370;4.832;2023-09-08T09:00:09;101742.22;;;33.40;49.85
77452;BME280;66537;52.370;4.832;2023-09-08T09:02:39;101750.91;;;33.75;50.13
77452;BME280;66537;52.370;4.832;2023-09-08T09:05:05;101750.34;;;33.95;48.42
77452;BME280;66537;52.370;4.832;2023-09-08T09:07:32;101753.81;;;33.25;50.13
77452;BME280;66537;52.370;4.832;2023-09-08T09:09:58;101748.28;;;33.58;50.22
77452;BME280;66537;52.370;4.832;2023-09-08T09:12:24;101757.16;;;33.43;49.84
77452;BME280;66537;52.370;4.832;2023-09-08T09:14:53;101753.13;;;33.15;50.75
77452;BME280;66537;52.370;4.832;2023-09-08T09:17:18;101757.47;;;33.40;49.87
77452;BME280;66537;52.370;4.832;2023-09-08T09:19:44;101757.16;;;33.51;49.62
77452;BME280;66537;52.370;4.832;2023-09-08T09:22:09;101756.81;;;33.46;50.21
77452;BME280;66537;52.370;4.832;2023-09-08T09:24:37;101763.31;;;33.76;49.63
77452;BME280;66537;52.370;4.832;2023-09-08T09:27:06;101766.97;;;34.37;48.46
77452;BME280;66537;52.370;4.832;2023-09-08T09:29:32;101763.00;;;34.25;49.42
77452;BME280;66537;52.370;4.832;2023-09-08T09:32:07;101763.91;;;34.10;49.68
77452;BME280;66537;52.370;4.832;2023-09-08T09:34:35;101756.34;;;34.05;50.34
77452;BME280;66537;52.370;4.832;2023-09-08T09:37:01;101763.66;;;33.64;49.77
77452;BME280;66537;52.370;4.832;2023-09-08T09:39:30;101755.78;;;33.71;49.94
77452;BME280;66537;52.370;4.832;2023-09-08T09:41:56;101753.13;;;33.07;51.67
77452;BME280;66537;52.370;4.832;2023-09-08T09:44:24;101745.94;;;32.99;51.18
77452;BME280;66537;52.370;4.832;2023-09-08T09:46:52;101745.09;;;34.10;48.79
77452;BME280;66537;52.370;4.832;2023-09-08T09:49:17;101748.41;;;34.20;49.15
77452;BME280;66537;52.370;4.832;2023-09-08T09:51:45;101745.72;;;33.73;49.97
77452;BME280;66537;52.370;4.832;2023-09-08T09:54:11;101740.97;;;33.83;51.03
77452;BME280;66537;52.370;4.832;2023-09-08T09:56:37;101744.13;;;34.03;50.02
77452;BME280;66537;52.370;4.832;2023-09-08T09:59:03;101741.38;;;33.64;50.67
77452;BME280;66537;52.370;4.832;2023-09-08T10:01:29;101739.16;;;33.76;50.76
77452;BME280;66537;52.370;4.832;2023-09-08T10:03:56;101737.66;;;33.73;51.08
77452;BME280;66537;52.370;4.832;2023-09-08T10:06:23;101739.69;;;34.18;50.64
77452;BME280;66537;52.370;4.832;2023-09-08T10:08:50;101734.25;;;34.65;48.94
77452;BME280;66537;52.370;4.832;2023-09-08T10:11:20;101735.47;;;34.54;50.09
77452;BME280;66537;52.370;4.832;2023-09-08T10:13:50;101733.94;;;35.05;47.68
77452;BME280;66537;52.370;4.832;2023-09-08T10:16:19;101732.81;;;35.36;47.85
77452;BME280;66537;52.370;4.832;2023-09-08T10:18:47;101738.41;;;34.36;49.33
77452;BME280;66537;52.370;4.832;2023-09-08T10:21:15;101741.22;;;34.74;49.41
77452;BME280;66537;52.370;4.832;2023-09-08T10:23:44;101729.44;;;35.20;47.90
77452;BME280;66537;52.370;4.832;2023-09-08T10:26:15;101733.81;;;35.21;47.25
77452;BME280;66537;52.370;4.832;2023-09-08T10:28:50;101729.03;;;35.60;46.43
77452;BME280;66537;52.370;4.832;2023-09-08T10:31:16;101735.59;;;35.28;47.37
77452;BME280;66537;52.370;4.832;2023-09-08T10:33:42;101729.63;;;35.56;46.61
77452;BME280;66537;52.370;4.832;2023-09-08T10:36:08;101739.28;;;35.50;45.99
77452;BME280;66537;52.370;4.832;2023-09-08T10:38:35;101734.16;;;35.55;47.06
77452;BME280;66537;52.370;4.832;2023-09-08T10:41:30;101741.97;;;35.13;48.07
77452;BME280;66537;52.370;4.832;2023-09-08T10:43:57;101744.09;;;34.95;48.57
77452;BME280;66537;52.370;4.832;2023-09-08T10:46:29;101743.31;;;34.33;48.93
77452;BME280;66537;52.370;4.832;2023-09-08T10:49:02;101734.91;;;34.67;48.47
77452;BME280;66537;52.370;4.832;2023-09-08T10:51:29;101745.06;;;34.18;48.82
77452;BME280;66537;52.370;4.832;2023-09-08T10:53:54;101743.09;;;34.04;49.43
77452;BME280;66537;52.370;4.832;2023-09-08T10:56:19;101743.81;;;33.98;50.07
77452;BME280;66537;52.370;4.832;2023-09-08T10:58:49;101748.94;;;33.36;51.40
77452;BME280;66537;52.370;4.832;2023-09-08T11:01:17;101745.72;;;32.76;53.82
77452;BME280;66537;52.370;4.832;2023-09-08T11:03:45;101747.19;;;32.05;53.70
77452;BME280;66537;52.370;4.832;2023-09-08T11:06:12;101746.31;;;32.05;55.17
77452;BME280;66537;52.370;4.832;2023-09-08T11:08:40;101740.47;;;32.01;54.93
77452;BME280;66537;52.370;4.832;2023-09-08T11:11:06;101737.38;;;31.62;56.27
77452;BME280;66537;52.370;4.832;2023-09-08T11:13:31;101741.81;;;32.05;54.94
77452;BME280;66537;52.370;4.832;2023-09-08T11:15:57;101745.28;;;32.39;54.10
77452;BME280;66537;52.370;4.832;2023-09-08T11:18:34;101739.81;;;32.49;52.98
77452;BME280;66537;52.370;4.832;2023-09-08T11:21:02;101736.38;;;33.29;52.54
77452;BME280;66537;52.370;4.832;2023-09-08T11:23:28;101736.56;;;33.19;51.63
77452;BME280;66537;52.370;4.832;2023-09-08T11:25:54;101732.84;;;33.52;52.77
77452;BME280;66537;52.370;4.832;2023-09-08T11:28:23;101738.69;;;33.72;50.63
77452;BME280;66537;52.370;4.832;2023-09-08T11:30:50;101741.66;;;33.77;50.39
77452;BME280;66537;52.370;4.832;2023-09-08T11:33:16;101743.06;;;33.41;50.67
77452;BME280;66537;52.370;4.832;2023-09-08T11:35:42;101747.47;;;33.10;52.40
77452;BME280;66537;52.370;4.832;2023-09-08T11:38:11;101736.72;;;33.02;52.63
77452;BME280;66537;52.370;4.832;2023-09-08T11:40:37;101734.38;;;32.99;52.92
77452;BME280;66537;52.370;4.832;2023-09-08T11:43:03;101739.22;;;33.03;52.54
77452;BME280;66537;52.370;4.832;2023-09-08T11:45:30;101739.91;;;32.31;54.59
77452;BME280;66537;52.370;4.832;2023-09-08T11:47:56;101735.88;;;32.35;54.23
77452;BME280;66537;52.370;4.832;2023-09-08T11:50:22;101740.47;;;32.01;56.00
77452;BME280;66537;52.370;4.832;2023-09-08T11:52:50;101743.94;;;31.68;56.86
77452;BME280;66537;52.370;4.832;2023-09-08T11:55:17;101741.53;;;31.57;57.30
77452;BME280;66537;52.370;4.832;2023-09-08T11:57:50;101745.88;;;31.58;56.47
77452;BME280;66537;52.370;4.832;2023-09-08T12:00:20;101736.19;;;31.90;56.65
77452;BME280;66537;52.370;4.832;2023-09-08T12:02:48;101736.53;;;31.62;57.96
77452;BME280;66537;52.370;4.832;2023-09-08T12:05:24;101733.47;;;31.49;56.81
77452;BME280;66537;52.370;4.832;2023-09-08T12:07:51;101731.66;;;31.57;56.60
77452;BME280;66537;52.370;4.832;2023-09-08T12:10:17;101733.84;;;31.19;56.24
77452;BME280;66537;52.370;4.832;2023-09-08T12:12:47;101735.84;;;31.17;55.57
77452;BME280;66537;52.370;4.832;2023-09-08T12:15:38;101732.13;;;31.09;56.39
77452;BME280;66537;52.370;4.832;2023-09-08T12:18:09;101733.31;;;30.89;57.30
77452;BME280;66537;52.370;4.832;2023-09-08T12:20:35;101727.91;;;31.07;57.42
77452;BME280;66537;52.370;4.832;2023-09-08T12:23:03;101730.44;;;30.73;58.08
77452;BME280;66537;52.370;4.832;2023-09-08T12:25:29;101724.00;;;30.66;58.46
77452;BME280;66537;52.370;4.832;2023-09-08T12:27:57;101728.63;;;30.74;56.94
77452;BME280;66537;52.370;4.832;2023-09-08T12:30:23;101724.66;;;30.60;56.42
77452;BME280;66537;52.370;4.832;2023-09-08T12:32:58;101722.50;;;30.81;57.37
77452;BME280;66537;52.370;4.832;2023-09-08T12:35:24;101719.69;;;31.00;58.24
77452;BME280;66537;52.370;4.832;2023-09-08T12:37:59;101716.03;;;31.01;56.19
77452;BME280;66537;52.370;4.832;2023-09-08T12:40:26;101713.81;;;30.79;57.04
77452;BME280;66537;52.370;4.832;2023-09-08T12:42:52;101714.91;;;30.86;58.12
77452;BME280;66537;52.370;4.832;2023-09-08T12:45:19;101716.72;;;30.86;56.90